Airfield :
LOGIN :

Register | Disclaimer

   EN    FR    IT 

 










Legend :    VFR   Marginal VFR   IFR   Intensive IFR   Very Intensive IFR
Visi :
Ceiling :
>= 8 km
>= 3000ft
5 to 8 km
1000 to 3000 ft
1500m to 5 km
500 to 1000 ft
800 to 1500m
200 to 500 ft
< 800m
< 200 ft
Symbols :   Thunderstorms  Fog  Heavy snow  Heavy precipitations  Wind > 20 kt
SIGMETs :     Misc.  Thunderstorms  Icing  Turbulence  Mountain Waves  Volcanic Ashes







- Airport Elevation : 863 ft
- IATA code : ZAZ


LEZG - Zaragoza Aragon

CURRENT METAR :
  • 220030Z 28012KT 9999 FEW040 20/15 Q1013

EXPIRED METARs :
  • 220000Z 30011KT 9999 FEW040 21/15 Q1013
  • 212330Z 29011KT 9999 FEW040 21/16 Q1013
  • 212300Z 28009KT 9999 FEW040 22/19 Q1013
  • 212230Z 29007KT 260V320 9999 FEW040 22/19 Q1013
  • 212200Z 35008KT 300V080 9999 FEW040TCU 23/20 Q1012

TAF TAF LEZG
Valid from the 22 at 00:00 until the 23 at 00:00 UTC


212300Z 2200/2224 30008KT 9999 SCT040 TX34/2215Z TN19/2206Z
PROB30
TEMPO 2200/2203 4000 TSRA FEW040CB
TEMPO 2206/2218 VRB04KT
PROB40
TEMPO 2212/2221 FEW040CB
No reported NOTAMs for that airfield.



MET'MAP, your aeronautical weather chart ! - Copyright ORBIFLY December 2007 - Disclaimer

ORBIFLY MET'MAP TEAM :

Programming & Development : Alexandra Zaïnal
Concept & Development : Baudouin d'Aumeries
Co-Development & Prog : Marc-Olivier Méhu
Technical & hardware support : Manuel Goepfert

Contact : metmap@orbifly.com




SOURCES & CREDITS :

   NOAA